Time;durP1;ratioP1;P1;durP2;ratioP2;P2;SDS_P1;SDS_P2;PMS_P1;PMS_P2;Temp;Humidity;BMP_temperature;BMP_pressure;BME280_temperature;BME280_humidity;BME280_pressure;Samples;Min_cycle;Max_cycle;Signal;HPM_P1;HPM_P2
2022/01/27 00:01:20;;;;;;;0.80;0.37;;;2.70;1.00;;;;;;5013791;28;20448;-75
2022/01/27 00:04:00;;;;;;;1.27;1.17;;;2.80;1.00;;;;;;5015718;28;20926;-74
2022/01/27 00:06:30;;;;;;;3.60;1.40;;;2.80;1.00;;;;;;5015682;28;20469;-74
2022/01/27 00:09:07;;;;;;;0.50;0.10;;;2.80;1.00;;;;;;5015421;28;20448;-75
2022/01/27 00:11:35;;;;;;;0.60;0.60;;;2.80;1.00;;;;;;5016315;28;20439;-75
2022/01/27 00:14:04;;;;;;;1.13;0.77;;;2.90;1.00;;;;;;5015216;28;20575;-75
2022/01/27 00:16:39;;;;;;;6.07;1.20;;;2.90;1.00;;;;;;5016514;28;20477;-74
2022/01/27 00:19:07;;;;;;;0.70;0.50;;;2.90;1.00;;;;;;5004761;28;20542;-74
2022/01/27 00:21:35;;;;;;;0.90;0.73;;;1.10;1.00;;;;;;5005438;28;20449;-75
2022/01/27 00:24:04;;;;;;;2.03;1.10;;;2.80;1.00;;;;;;5013775;28;20458;-73
2022/01/27 00:26:32;;;;;;;0.50;0.20;;;2.80;1.00;;;;;;5014939;28;20486;-74
2022/01/27 00:29:00;;;;;;;0.50;0.10;;;;;;;;;;5015455;28;20449;-74
2022/01/27 00:31:28;;;;;;;0.50;0.10;;;2.80;1.00;;;;;;5016888;28;20448;-74
2022/01/27 00:33:57;;;;;;;8.23;6.63;;;2.80;1.00;;;;;;5016111;28;20457;-74
2022/01/27 00:36:25;;;;;;;0.60;0.30;;;2.90;1.00;;;;;;5015431;28;20479;-74
2022/01/27 00:38:53;;;;;;;1.00;0.30;;;2.90;1.00;;;;;;5010796;28;20574;-74
2022/01/27 00:41:22;;;;;;;0.70;0.60;;;2.90;1.00;;;;;;4990104;28;20455;-74
2022/01/27 00:43:50;;;;;;;0.50;0.10;;;2.90;1.00;;;;;;5012190;28;20823;-74
2022/01/27 00:46:19;;;;;;;0.50;0.10;;;2.90;1.00;;;;;;5013608;28;20465;-74
2022/01/27 00:48:49;;;;;;;1.03;0.97;;;2.90;1.00;;;;;;5015990;28;20441;-74
2022/01/27 00:51:22;;;;;;;1.97;1.80;;;3.00;1.00;;;;;;5015818;28;20440;-75
2022/01/27 00:53:56;;;;;;;0.60;0.50;;;3.00;1.00;;;;;;5015173;28;21034;-74
2022/01/27 00:56:31;;;;;;;0.60;0.40;;;2.90;1.00;;;;;;5015087;28;20470;-74
2022/01/27 00:59:16;;;;;;;2.57;2.37;;;2.90;1.00;;;;;;5014700;28;20590;-74
2022/01/27 01:01:50;;;;;;;0.50;0.13;;;2.90;1.00;;;;;;5015681;28;20445;-75
2022/01/27 01:04:25;;;;;;;2.20;0.67;;;2.90;1.00;;;;;;5015119;28;20468;-74
2022/01/27 01:06:54;;;;;;;3.80;1.80;;;3.00;1.00;;;;;;5015415;28;20531;-73
2022/01/27 01:12:57;;;;;;;2.87;2.57;;;2.90;1.00;;;;;;5014656;28;20459;-74
2022/01/27 01:15:15;;;;;;;0.50;0.10;;;2.90;1.00;;;;;;4975986;28;20476;-74
2022/01/27 01:17:54;;;;;;;1.27;0.67;;;2.90;1.00;;;;;;4975958;28;20797;-73
2022/01/27 01:20:40;;;;;;;0.50;0.10;;;2.90;1.00;;;;;;4976185;28;20573;-73
2022/01/27 01:31:43;;;;;;;5.60;3.30;;;2.50;1.00;;;;;;5015258;28;20478;-73
2022/01/27 01:34:16;;;;;;;3.60;1.50;;;2.50;1.00;;;;;;5015208;28;20451;-75
2022/01/27 01:36:57;;;;;;;2.10;1.90;;;2.50;1.00;;;;;;5014648;28;20487;-74
2022/01/27 01:39:29;;;;;;;0.60;0.10;;;2.50;1.00;;;;;;5014345;28;20526;-73
2022/01/27 01:41:58;;;;;;;4.80;1.47;;;2.50;1.00;;;;;;5014079;28;20448;-73
2022/01/27 01:44:27;;;;;;;0.60;0.30;;;2.40;1.00;;;;;;5013961;28;20441;-73
2022/01/27 01:46:56;;;;;;;2.90;2.73;;;2.40;1.00;;;;;;5013616;28;20452;-73
2022/01/27 01:49:26;;;;;;;6.13;4.70;;;2.50;1.00;;;;;;5014615;28;20448;-74
2022/01/27 01:51:56;;;;;;;0.60;0.43;;;2.50;1.00;;;;;;5014199;28;20444;-74
2022/01/27 01:54:24;;;;;;;4.60;3.17;;;2.50;1.00;;;;;;5014294;28;20455;-74
2022/01/27 01:56:54;;;;;;;6.10;4.33;;;2.50;1.00;;;;;;5014014;28;20849;-74
2022/01/27 01:59:22;;;;;;;2.30;1.90;;;2.40;1.00;;;;;;5014247;28;20480;-74
2022/01/27 02:01:50;;;;;;;0.53;0.27;;;2.40;1.00;;;;;;5014533;28;20539;-74
2022/01/27 02:04:18;;;;;;;0.50;0.10;;;2.40;1.00;;;;;;5014064;28;20437;-74
2022/01/27 02:06:50;;;;;;;0.80;0.80;;;;;;;;;;5015379;28;20472;-74
2022/01/27 02:09:27;;;;;;;0.60;0.30;;;2.60;1.00;;;;;;5013183;28;20441;-75
2022/01/27 02:20:15;;;;;;;0.90;0.60;;;2.80;1.00;;;;;;5003841;28;20572;-75
2022/01/27 02:22:43;;;;;;;14.57;13.90;;;2.80;1.00;;;;;;5002479;28;20449;-75
2022/01/27 02:25:11;;;;;;;1.13;1.03;;;2.90;1.00;;;;;;5005930;28;20555;-74
2022/01/27 02:27:39;;;;;;;0.50;0.10;;;2.90;1.00;;;;;;5012391;28;20444;-75
2022/01/27 02:30:08;;;;;;;1.47;0.70;;;3.00;1.00;;;;;;5011801;28;20447;-74
2022/01/27 02:32:36;;;;;;;0.50;0.10;;;2.90;1.00;;;;;;5013455;28;20445;-74
2022/01/27 02:35:04;;;;;;;2.10;0.60;;;;;;;;;;5013130;28;20480;-74
2022/01/27 02:37:33;;;;;;;0.50;0.10;;;2.90;1.00;;;;;;5012911;28;20445;-74
2022/01/27 02:40:01;;;;;;;4.33;1.53;;;2.90;1.00;;;;;;4998376;28;20501;-75
2022/01/27 02:42:32;;;;;;;0.50;0.10;;;2.80;1.00;;;;;;4993256;28;20442;-74
2022/01/27 02:45:07;;;;;;;0.60;0.57;;;2.70;1.00;;;;;;4991202;28;20483;-75
2022/01/27 02:47:35;;;;;;;0.50;0.30;;;;;;;;;;5000472;28;20446;-74
2022/01/27 02:50:04;;;;;;;0.50;0.10;;;;;;;;;;5011526;28;20440;-73
2022/01/27 02:52:33;;;;;;;1.20;0.40;;;2.80;1.00;;;;;;5012726;28;20448;-73
2022/01/27 02:55:01;;;;;;;3.07;2.87;;;2.80;1.00;;;;;;5006760;28;20557;-73
2022/01/27 02:57:29;;;;;;;0.50;0.20;;;;;;;;;;4995135;28;20468;-73
2022/01/27 02:59:57;;;;;;;1.47;1.37;;;2.80;1.00;;;;;;5011143;28;20503;-73
2022/01/27 03:02:25;;;;;;;0.50;0.10;;;2.90;1.00;;;;;;5012694;28;20450;-73
2022/01/27 03:04:53;;;;;;;0.50;0.20;;;2.90;1.00;;;;;;5011962;28;20472;-74
2022/01/27 03:07:21;;;;;;;0.60;0.33;;;2.90;1.00;;;;;;5013271;28;20444;-74
2022/01/27 03:09:51;;;;;;;1.40;1.30;;;3.00;1.00;;;;;;5012481;28;20941;-74
2022/01/27 03:12:20;;;;;;;0.50;0.10;;;2.90;1.00;;;;;;5012582;28;20781;-74
2022/01/27 03:14:48;;;;;;;0.53;0.27;;;2.90;1.00;;;;;;5011747;28;20582;-74
2022/01/27 03:17:16;;;;;;;0.50;0.10;;;2.90;1.00;;;;;;5012366;28;20485;-74
2022/01/27 03:19:44;;;;;;;0.50;0.20;;;2.90;1.00;;;;;;5012499;28;20774;-74
2022/01/27 03:22:12;;;;;;;0.50;0.20;;;2.90;1.00;;;;;;5016260;28;20452;-74
2022/01/27 03:24:40;;;;;;;1.67;0.97;;;3.00;1.00;;;;;;5018384;28;20440;-74
2022/01/27 03:27:16;;;;;;;0.50;0.20;;;3.00;1.00;;;;;;5018767;28;20974;-74
2022/01/27 03:29:44;;;;;;;0.60;0.20;;;3.00;1.00;;;;;;5018415;28;20450;-74
2022/01/27 03:32:12;;;;;;;5.33;1.90;;;2.90;1.00;;;;;;5018696;28;20900;-74
2022/01/27 03:34:40;;;;;;;0.50;0.10;;;2.90;1.00;;;;;;5017900;28;20452;-73
2022/01/27 03:37:08;;;;;;;2.10;1.17;;;;;;;;;;5024094;22;20497;-73
2022/01/27 03:39:38;;;;;;;0.77;0.37;;;2.90;1.00;;;;;;4998521;28;20477;-73
2022/01/27 03:42:09;;;;;;;0.50;0.20;;;2.80;1.00;;;;;;4998548;28;20943;-75
2022/01/27 03:44:37;;;;;;;0.80;0.50;;;2.90;1.00;;;;;;5013426;28;20985;-74
2022/01/27 03:47:06;;;;;;;1.07;1.07;;;2.90;1.00;;;;;;5021030;28;20500;-73
2022/01/27 03:49:34;;;;;;;0.50;0.10;;;2.90;1.00;;;;;;5019741;28;20555;-73
2022/01/27 03:52:02;;;;;;;0.57;0.30;;;2.90;1.00;;;;;;5018640;28;20523;-73
2022/01/27 03:54:31;;;;;;;0.50;0.20;;;2.90;1.00;;;;;;5019169;28;20478;-73
2022/01/27 03:57:00;;;;;;;2.50;1.20;;;2.80;1.00;;;;;;5019443;28;20678;-73
2022/01/27 03:59:30;;;;;;;0.50;0.10;;;2.90;1.00;;;;;;5020136;28;20468;-74
2022/01/27 04:01:58;;;;;;;0.50;0.10;;;2.90;1.00;;;;;;5019148;28;20537;-73
2022/01/27 04:04:27;;;;;;;0.50;0.10;;;2.90;1.00;;;;;;5012188;28;20498;-72
2022/01/27 04:06:57;;;;;;;0.60;0.30;;;2.90;1.00;;;;;;5020034;28;20495;-74
2022/01/27 04:09:27;;;;;;;0.50;0.10;;;2.90;1.00;;;;;;5016717;28;20766;-74
2022/01/27 04:11:55;;;;;;;7.50;7.20;;;2.90;1.00;;;;;;4998584;28;20473;-74
2022/01/27 04:14:23;;;;;;;2.70;2.50;;;2.90;1.00;;;;;;5012108;28;20460;-74
2022/01/27 04:16:52;;;;;;;2.20;2.03;;;2.90;1.00;;;;;;5018861;28;20468;-74
2022/01/27 04:19:20;;;;;;;0.50;0.30;;;2.70;1.00;;;;;;5018109;28;20871;-74
2022/01/27 04:21:51;;;;;;;5.40;2.33;;;2.60;1.00;;;;;;5018156;28;20483;-74
2022/01/27 04:24:19;;;;;;;5.70;1.63;;;2.60;1.00;;;;;;5017654;28;20448;-73
2022/01/27 04:26:51;;;;;;;4.10;1.30;;;2.60;1.00;;;;;;5017892;28;20456;-73
2022/01/27 04:29:22;;;;;;;1.17;0.83;;;2.60;1.00;;;;;;5017934;28;20545;-73
2022/01/27 04:31:52;;;;;;;9.50;4.87;;;2.70;1.00;;;;;;5020009;28;20448;-73
2022/01/27 04:34:20;;;;;;;2.90;2.80;;;2.60;1.00;;;;;;5016017;28;20444;-73
2022/01/27 04:36:48;;;;;;;10.77;5.47;;;4.10;1.00;;;;;;5016683;28;20572;-73
2022/01/27 04:39:21;;;;;;;4.20;0.80;;;2.50;1.00;;;;;;5016300;28;21225;-73
2022/01/27 04:41:55;;;;;;;14.93;4.23;;;2.50;1.00;;;;;;5016991;28;20515;-74
2022/01/27 04:44:29;;;;;;;0.50;0.17;;;2.50;1.00;;;;;;5017775;28;20460;-74
2022/01/27 04:47:03;;;;;;;2.10;0.40;;;2.50;1.00;;;;;;5018920;28;20733;-74
2022/01/27 04:49:31;;;;;;;3.23;2.07;;;2.50;1.00;;;;;;5019257;28;20455;-74
2022/01/27 04:51:59;;;;;;;2.27;2.03;;;2.50;1.00;;;;;;5018324;28;20541;-73
2022/01/27 04:54:32;;;;;;;2.60;2.40;;;2.60;1.00;;;;;;5015822;28;20522;-74
2022/01/27 04:57:03;;;;;;;33.43;31.00;;;2.60;1.00;;;;;;5016176;28;20477;-73
2022/01/27 04:59:36;;;;;;;0.50;0.20;;;2.60;1.00;;;;;;5015557;28;20819;-74
2022/01/27 05:02:10;;;;;;;0.50;0.10;;;2.60;1.00;;;;;;5016970;28;21024;-73
2022/01/27 05:04:42;;;;;;;0.60;0.50;;;2.60;1.00;;;;;;5013771;28;20939;-74
2022/01/27 05:07:11;;;;;;;10.03;3.70;;;2.60;1.00;;;;;;5014335;28;20468;-73
2022/01/27 05:09:48;;;;;;;6.00;1.80;;;2.70;1.00;;;;;;5013740;28;20503;-73
2022/01/27 05:12:26;;;;;;;6.00;1.80;;;2.60;1.00;;;;;;5013909;28;20580;-72
2022/01/27 05:14:58;;;;;;;0.50;0.20;;;2.50;1.00;;;;;;5013127;28;20911;-73
2022/01/27 05:17:27;;;;;;;2.27;1.80;;;2.40;1.00;;;;;;5013285;28;20447;-74
2022/01/27 05:19:55;;;;;;;3.17;2.10;;;2.40;1.00;;;;;;5013419;28;20456;-72
2022/01/27 05:22:23;;;;;;;5.17;3.30;;;2.30;1.00;;;;;;5013260;28;21018;-73
2022/01/27 05:24:51;;;;;;;5.43;4.90;;;2.30;1.00;;;;;;5013029;28;20449;-73
2022/01/27 05:27:19;;;;;;;0.50;0.30;;;2.20;1.00;;;;;;5013028;28;20463;-72
2022/01/27 05:29:47;;;;;;;9.60;6.00;;;2.30;1.00;;;;;;5013222;28;20864;-74
2022/01/27 05:32:15;;;;;;;5.27;2.90;;;2.20;1.00;;;;;;4997908;28;20461;-73
2022/01/27 05:34:45;;;;;;;8.27;4.40;;;2.20;1.00;;;;;;5008332;28;20564;-73
2022/01/27 05:37:13;;;;;;;4.00;3.70;;;;;;;;;;4974975;28;20477;-73
2022/01/27 05:39:41;;;;;;;0.50;0.10;;;2.20;1.00;;;;;;4979981;28;20458;-73
2022/01/27 05:42:09;;;;;;;0.70;0.50;;;2.20;1.00;;;;;;4977335;28;20524;-74
2022/01/27 05:44:37;;;;;;;7.63;2.37;;;2.30;1.00;;;;;;4974024;28;20442;-74
2022/01/27 05:47:05;;;;;;;0.50;0.20;;;2.30;1.00;;;;;;5004694;28;20911;-73
2022/01/27 05:49:33;;;;;;;6.33;2.77;;;2.30;1.00;;;;;;5013145;28;20454;-73
2022/01/27 05:52:03;;;;;;;2.17;1.60;;;2.20;1.00;;;;;;5004256;28;20820;-73
2022/01/27 05:54:33;;;;;;;1.43;1.07;;;2.20;1.00;;;;;;4993593;28;20453;-74
2022/01/27 05:57:01;;;;;;;2.90;2.27;;;2.20;1.00;;;;;;4993636;28;20512;-74
2022/01/27 05:59:29;;;;;;;0.90;0.60;;;2.20;1.00;;;;;;4993628;28;20594;-74
2022/01/27 06:01:57;;;;;;;0.50;0.23;;;2.30;1.00;;;;;;5012565;28;20490;-73
2022/01/27 06:04:25;;;;;;;0.77;0.50;;;2.30;1.00;;;;;;5013759;28;20545;-75
2022/01/27 06:06:54;;;;;;;2.40;1.07;;;2.40;1.00;;;;;;5000838;28;21016;-74
2022/01/27 06:09:23;;;;;;;3.20;2.10;;;2.50;1.00;;;;;;4999915;28;20465;-74
2022/01/27 06:11:51;;;;;;;11.93;5.97;;;2.50;1.00;;;;;;5010642;28;20970;-74
2022/01/27 06:14:19;;;;;;;0.50;0.30;;;2.50;1.00;;;;;;5001229;28;20701;-73
2022/01/27 06:16:48;;;;;;;6.70;4.90;;;2.50;1.00;;;;;;5008986;28;20501;-74
2022/01/27 06:19:16;;;;;;;0.50;0.20;;;2.50;1.00;;;;;;5015004;28;20602;-74
2022/01/27 06:21:44;;;;;;;0.60;0.40;;;2.60;1.00;;;;;;5015065;28;20522;-75
2022/01/27 06:24:13;;;;;;;6.27;1.87;;;2.60;1.00;;;;;;5013811;28;20436;-73
2022/01/27 06:26:42;;;;;;;1.23;1.13;;;2.60;1.00;;;;;;4996536;28;20461;-73
2022/01/27 06:29:10;;;;;;;0.50;0.10;;;2.60;1.00;;;;;;4991115;28;20457;-73
2022/01/27 06:31:38;;;;;;;0.50;0.20;;;2.70;1.00;;;;;;5000289;28;20467;-74
2022/01/27 06:34:06;;;;;;;6.10;4.57;;;2.70;1.00;;;;;;5003346;28;21006;-74
2022/01/27 06:36:34;;;;;;;0.50;0.20;;;2.60;1.00;;;;;;5011884;28;20476;-74
2022/01/27 06:39:02;;;;;;;1.53;0.90;;;2.60;1.00;;;;;;5011971;28;20452;-74
2022/01/27 06:41:30;;;;;;;1.03;1.03;;;2.60;1.00;;;;;;5011759;28;20534;-74
2022/01/27 06:44:02;;;;;;;12.13;3.20;;;2.60;1.00;;;;;;5012860;28;20444;-74
2022/01/27 06:46:30;;;;;;;0.50;0.10;;;2.60;1.00;;;;;;4999233;28;20489;-74
2022/01/27 06:48:58;;;;;;;6.13;1.70;;;2.50;1.00;;;;;;5000290;28;20457;-74
2022/01/27 06:51:27;;;;;;;0.87;0.70;;;;;;;;;;5003460;28;20460;-74
2022/01/27 06:53:55;;;;;;;1.13;0.70;;;2.60;1.00;;;;;;5011924;28;20524;-74
2022/01/27 06:56:23;;;;;;;0.50;0.10;;;2.70;1.00;;;;;;5011059;28;20538;-74
2022/01/27 06:58:51;;;;;;;2.00;1.90;;;2.70;1.00;;;;;;5012143;28;20529;-74
2022/01/27 07:01:21;;;;;;;0.50;0.10;;;;;;;;;;4994034;28;20495;-74
2022/01/27 07:03:49;;;;;;;0.60;0.20;;;3.00;1.00;;;;;;5007901;28;20458;-74
2022/01/27 07:06:18;;;;;;;3.33;1.23;;;3.00;1.00;;;;;;4989491;28;20515;-75
2022/01/27 07:08:46;;;;;;;1.23;0.97;;;3.00;1.00;;;;;;4992828;28;20452;-74
2022/01/27 07:11:14;;;;;;;0.50;0.10;;;3.00;1.00;;;;;;4992376;28;20485;-75
2022/01/27 07:13:42;;;;;;;0.50;0.20;;;3.00;1.00;;;;;;4989688;28;20945;-74
2022/01/27 07:16:10;;;;;;;0.80;0.80;;;3.10;1.00;;;;;;4972809;28;20562;-74
2022/01/27 07:18:40;;;;;;;1.53;0.77;;;3.00;1.00;;;;;;5008740;28;20455;-74
2022/01/27 07:21:09;;;;;;;0.50;0.10;;;3.00;1.00;;;;;;5012012;28;20536;-75
2022/01/27 07:23:36;;;;;;;2.53;0.83;;;3.00;1.00;;;;;;5009878;28;20480;-73
2022/01/27 07:26:05;;;;;;;19.23;2.47;;;;;;;;;;4993003;28;20494;-73
2022/01/27 07:28:33;;;;;;;0.50;0.10;;;3.10;1.00;;;;;;4992357;28;20536;-74
2022/01/27 07:31:03;;;;;;;0.50;0.10;;;3.10;1.00;;;;;;4994072;28;20470;-74
2022/01/27 07:33:33;;;;;;;2.20;0.60;;;6.30;1.00;;;;;;5011873;28;20545;-74
2022/01/27 07:36:03;;;;;;;2.50;2.23;;;;;;;;;;5011881;28;20477;-74
2022/01/27 07:38:31;;;;;;;3.60;3.10;;;3.00;1.00;;;;;;5012972;28;20505;-74
2022/01/27 07:40:59;;;;;;;1.17;0.97;;;3.00;1.00;;;;;;5012039;28;20948;-74
2022/01/27 07:43:27;;;;;;;1.53;1.20;;;3.00;1.00;;;;;;5012128;28;20488;-78
2022/01/27 07:45:55;;;;;;;7.60;2.00;;;3.00;1.00;;;;;;5013271;28;20544;-77
2022/01/27 07:48:24;;;;;;;0.90;0.60;;;2.90;1.00;;;;;;5013494;28;20462;-77
2022/01/27 07:50:52;;;;;;;0.50;0.10;;;2.90;1.00;;;;;;5013374;28;20453;-77
2022/01/27 07:53:21;;;;;;;2.23;2.03;;;2.90;1.00;;;;;;5013368;28;20448;-78
2022/01/27 07:55:49;;;;;;;0.50;0.10;;;2.80;1.00;;;;;;4991561;28;20462;-75
2022/01/27 07:58:17;;;;;;;0.50;0.10;;;2.80;1.00;;;;;;4991960;28;20527;-74
2022/01/27 08:00:45;;;;;;;3.60;2.63;;;2.80;1.00;;;;;;5001586;28;20480;-74
2022/01/27 08:03:13;;;;;;;2.70;0.97;;;2.80;1.00;;;;;;5015529;28;20514;-74
2022/01/27 08:05:42;;;;;;;3.20;0.87;;;2.70;1.00;;;;;;5003653;28;20543;-75
2022/01/27 08:08:12;;;;;;;1.93;0.30;;;2.80;1.00;;;;;;4993686;28;20449;-75
2022/01/27 08:10:44;;;;;;;1.17;1.03;;;;;;;;;;4995843;28;20437;-74
2022/01/27 08:13:13;;;;;;;5.60;2.33;;;2.60;1.00;;;;;;4995566;28;20441;-73
2022/01/27 08:15:41;;;;;;;7.00;3.70;;;2.60;1.00;;;;;;5009702;28;20526;-75
2022/01/27 08:18:09;;;;;;;1.67;1.57;;;2.60;1.00;;;;;;5017858;28;20432;-74
2022/01/27 08:20:38;;;;;;;3.37;2.40;;;2.60;1.00;;;;;;5016087;28;20484;-75
2022/01/27 08:23:06;;;;;;;0.50;0.20;;;2.60;1.00;;;;;;5014909;28;20601;-74
2022/01/27 08:25:35;;;;;;;0.50;0.30;;;2.50;1.00;;;;;;5014569;28;20452;-74
2022/01/27 08:28:15;;;;;;;0.50;0.10;;;2.50;1.00;;;;;;5015850;28;21116;-74
2022/01/27 08:30:47;;;;;;;2.20;2.00;;;2.50;1.00;;;;;;4976619;28;20465;-73
2022/01/27 08:33:18;;;;;;;3.63;3.30;;;2.60;1.00;;;;;;5009057;28;20440;-75
2022/01/27 08:35:46;;;;;;;3.60;2.03;;;2.40;1.00;;;;;;5006688;28;20811;-75
2022/01/27 08:38:15;;;;;;;0.50;0.10;;;2.40;1.00;;;;;;5015620;28;20459;-74
2022/01/27 08:40:43;;;;;;;2.43;2.23;;;2.40;1.00;;;;;;5016421;28;20448;-73
2022/01/27 08:43:12;;;;;;;1.43;0.60;;;2.40;1.00;;;;;;5012796;28;20572;-74
2022/01/27 08:45:42;;;;;;;11.53;6.07;;;2.40;1.00;;;;;;5015624;28;20470;-74
2022/01/27 08:48:13;;;;;;;3.63;2.63;;;2.40;1.00;;;;;;5015578;28;20528;-74
2022/01/27 08:50:48;;;;;;;0.50;0.10;;;2.40;1.00;;;;;;5016259;28;20454;-74
2022/01/27 08:53:37;;;;;;;7.73;4.10;;;2.40;1.00;;;;;;5016666;28;20474;-74
2022/01/27 08:56:05;;;;;;;1.60;0.97;;;2.50;1.00;;;;;;5016416;28;20472;-75
2022/01/27 08:58:35;;;;;;;4.77;3.27;;;2.50;1.00;;;;;;5016827;28;20468;-74
2022/01/27 09:01:03;;;;;;;2.37;2.17;;;2.50;1.00;;;;;;5017014;28;20459;-74
2022/01/27 09:03:31;;;;;;;0.50;0.10;;;2.50;1.00;;;;;;5016684;28;20483;-74
2022/01/27 09:05:59;;;;;;;12.90;3.17;;;2.50;1.00;;;;;;5001532;28;20465;-74
2022/01/27 09:08:27;;;;;;;0.50;0.10;;;2.60;1.00;;;;;;4991548;28;20448;-74
2022/01/27 09:10:55;;;;;;;0.57;0.43;;;2.60;1.00;;;;;;4994623;28;20496;-74
2022/01/27 09:13:23;;;;;;;5.93;2.67;;;2.60;1.00;;;;;;4980668;28;20461;-74
2022/01/27 09:15:54;;;;;;;6.10;2.00;;;2.50;1.00;;;;;;4998431;28;20461;-74
2022/01/27 09:18:24;;;;;;;5.60;3.20;;;2.50;1.00;;;;;;5007575;28;20819;-74
2022/01/27 09:20:52;;;;;;;1.43;0.67;;;2.60;1.00;;;;;;4996222;28;20958;-73
2022/01/27 09:23:22;;;;;;;2.90;2.37;;;2.60;1.00;;;;;;4988835;28;20481;-74
2022/01/27 09:25:54;;;;;;;4.10;2.93;;;2.60;1.00;;;;;;5003268;28;20468;-73
2022/01/27 09:28:23;;;;;;;2.00;1.03;;;2.50;1.00;;;;;;4994462;28;20461;-74
2022/01/27 09:30:52;;;;;;;4.90;3.33;;;2.50;1.00;;;;;;4988499;28;20460;-75
2022/01/27 09:33:20;;;;;;;1.77;1.67;;;2.50;1.00;;;;;;5012199;28;20536;-75
2022/01/27 09:35:48;;;;;;;0.93;0.43;;;2.50;1.00;;;;;;5013472;28;20477;-74
2022/01/27 09:38:17;;;;;;;1.50;1.40;;;2.50;1.00;;;;;;5014248;28;20440;-73
2022/01/27 09:40:49;;;;;;;0.50;0.10;;;2.60;1.00;;;;;;5014173;28;20545;-73
2022/01/27 09:43:17;;;;;;;0.50;0.10;;;2.60;1.00;;;;;;5012684;28;21221;-74
2022/01/27 09:45:46;;;;;;;3.60;2.13;;;2.70;1.00;;;;;;4995645;28;20473;-75
2022/01/27 09:48:17;;;;;;;0.60;0.10;;;2.70;1.00;;;;;;4997547;28;21031;-73
2022/01/27 09:50:59;;;;;;;3.30;1.63;;;2.70;1.00;;;;;;5003004;28;20464;-74
2022/01/27 09:53:29;;;;;;;4.30;3.13;;;2.60;1.00;;;;;;5016689;28;20547;-73
2022/01/27 09:55:57;;;;;;;6.57;2.20;;;2.60;1.00;;;;;;5017069;28;20499;-74
2022/01/27 09:58:27;;;;;;;7.00;5.73;;;2.40;1.00;;;;;;5018128;28;20452;-74
2022/01/27 10:00:57;;;;;;;1.90;1.80;;;2.40;1.00;;;;;;5018046;28;20456;-74
2022/01/27 10:03:28;;;;;;;4.57;4.17;;;2.30;1.00;;;;;;5016924;28;20538;-74
2022/01/27 10:06:10;;;;;;;6.87;3.87;;;;;;;;;;5012359;28;20484;-74
2022/01/27 10:08:40;;;;;;;2.97;1.40;;;2.30;1.00;;;;;;4993591;28;20449;-74
2022/01/27 10:11:15;;;;;;;3.57;1.73;;;2.20;1.00;;;;;;4994764;28;20532;-73
2022/01/27 10:13:45;;;;;;;0.50;0.17;;;2.30;1.00;;;;;;5001729;28;20455;-74
2022/01/27 10:16:28;;;;;;;0.80;0.70;;;2.40;1.00;;;;;;5013140;28;20456;-73
2022/01/27 10:19:05;;;;;;;4.73;3.03;;;2.40;1.00;;;;;;5013536;28;20551;-75
2022/01/27 10:21:34;;;;;;;4.47;3.10;;;2.50;1.00;;;;;;5014014;28;20450;-74
2022/01/27 10:24:15;;;;;;;1.63;1.53;;;2.50;1.00;;;;;;5014893;28;20489;-74
2022/01/27 10:26:45;;;;;;;4.73;4.23;;;2.40;1.00;;;;;;5014888;28;20475;-74
2022/01/27 10:29:17;;;;;;;2.10;2.00;;;;;;;;;;5014160;28;20459;-73
2022/01/27 10:31:45;;;;;;;7.63;1.37;;;2.40;1.00;;;;;;5014707;28;20482;-74
2022/01/27 10:34:15;;;;;;;1.53;0.60;;;2.40;1.00;;;;;;5015090;28;20456;-74
2022/01/27 10:36:45;;;;;;;0.50;0.20;;;2.40;1.00;;;;;;4994276;28;20481;-74
2022/01/27 10:39:15;;;;;;;2.37;2.20;;;2.50;1.00;;;;;;4995001;28;20485;-74
2022/01/27 10:41:56;;;;;;;0.80;0.53;;;2.50;1.00;;;;;;4993985;28;20454;-74
2022/01/27 10:44:33;;;;;;;1.30;1.20;;;2.50;1.00;;;;;;4993809;28;20469;-74
2022/01/27 10:47:08;;;;;;;3.23;0.80;;;2.70;1.00;;;;;;4991512;28;20582;-75
2022/01/27 10:49:43;;;;;;;0.93;0.90;;;2.70;1.00;;;;;;4993423;28;20544;-74
2022/01/27 10:52:12;;;;;;;1.33;0.87;;;2.70;1.00;;;;;;4997455;28;20444;-73
2022/01/27 10:54:47;;;;;;;3.87;2.53;;;2.70;1.00;;;;;;4999643;28;20465;-74
2022/01/27 10:57:15;;;;;;;0.80;0.73;;;2.70;1.00;;;;;;4994350;28;20476;-73
2022/01/27 10:59:43;;;;;;;0.53;0.27;;;2.70;1.00;;;;;;4987902;28;20552;-74
2022/01/27 11:02:12;;;;;;;0.50;0.10;;;2.60;1.00;;;;;;4991258;28;20436;-74
2022/01/27 11:04:44;;;;;;;0.50;0.10;;;2.70;1.00;;;;;;4989621;28;20488;-74
2022/01/27 11:07:14;;;;;;;0.50;0.10;;;2.70;1.00;;;;;;4992118;28;20806;-74
2022/01/27 11:09:44;;;;;;;0.60;0.40;;;2.80;1.00;;;;;;4990722;28;20441;-73
2022/01/27 11:12:16;;;;;;;0.77;0.77;;;2.90;1.00;;;;;;4992519;28;20451;-74
2022/01/27 11:14:47;;;;;;;10.13;4.37;;;2.90;1.00;;;;;;4995832;28;20942;-73
2022/01/27 11:17:20;;;;;;;0.50;0.20;;;3.10;1.00;;;;;;4994447;28;20523;-74
2022/01/27 11:22:59;;;;;;;5.97;4.63;;;3.10;1.00;;;;;;4976555;28;20469;-74
2022/01/27 11:28:16;;;;;;;7.27;4.20;;;3.10;1.00;;;;;;4992286;28;21192;-75
2022/01/27 11:30:57;;;;;;;3.33;2.20;;;3.10;1.00;;;;;;4992138;28;20478;-74
2022/01/27 11:33:40;;;;;;;0.50;0.10;;;3.10;1.00;;;;;;4991421;28;20446;-73
2022/01/27 11:36:15;;;;;;;3.13;2.90;;;3.10;1.00;;;;;;4991803;28;21055;-73
2022/01/27 11:38:46;;;;;;;0.50;0.10;;;3.10;1.00;;;;;;4993460;28;20446;-75
2022/01/27 11:41:50;;;;;;;6.13;4.47;;;3.20;1.00;;;;;;4994639;28;20991;-74
2022/01/27 11:44:28;;;;;;;0.67;0.27;;;3.20;1.00;;;;;;4988370;28;20836;-73
2022/01/27 11:47:19;;;;;;;1.60;1.50;;;3.10;1.00;;;;;;4997323;28;20453;-74
2022/01/27 11:50:05;;;;;;;3.33;1.50;;;3.10;1.00;;;;;;4995837;28;20473;-75
2022/01/27 11:52:48;;;;;;;0.50;0.20;;;3.10;1.00;;;;;;4997176;28;20465;-72
2022/01/27 11:55:44;;;;;;;0.50;0.10;;;3.10;1.00;;;;;;4998955;28;20446;-74
2022/01/27 11:58:20;;;;;;;4.30;3.97;;;3.00;1.00;;;;;;4992067;28;20485;-72
2022/01/27 12:01:15;;;;;;;2.87;2.67;;;5.20;1.00;;;;;;4998930;28;20441;-74
2022/01/27 12:04:15;;;;;;;0.50;0.10;;;2.90;1.00;;;;;;4998280;28;20456;-74
2022/01/27 12:07:05;;;;;;;0.50;0.10;;;3.00;1.00;;;;;;4995776;28;20497;-74
2022/01/27 12:09:36;;;;;;;0.50;0.10;;;3.10;1.00;;;;;;5005451;28;20456;-74
2022/01/27 12:12:13;;;;;;;0.73;0.67;;;3.20;1.00;;;;;;4996763;28;20723;-74
2022/01/27 12:15:02;;;;;;;0.50;0.10;;;3.20;1.00;;;;;;4993081;28;20460;-74
2022/01/27 12:17:31;;;;;;;2.63;2.00;;;3.20;1.00;;;;;;5000476;28;20503;-74
2022/01/27 12:20:02;;;;;;;0.50;0.20;;;3.20;1.00;;;;;;5002588;28;20797;-74
2022/01/27 12:23:01;;;;;;;2.00;1.13;;;3.20;1.00;;;;;;4998166;28;20429;-74
2022/01/27 12:25:54;;;;;;;1.13;0.70;;;3.10;1.00;;;;;;4988823;28;20600;-74
2022/01/27 12:28:23;;;;;;;2.73;1.00;;;3.10;1.00;;;;;;5000724;28;20499;-74
2022/01/27 12:30:59;;;;;;;1.10;0.53;;;3.10;1.00;;;;;;4995342;28;20453;-75
2022/01/27 12:33:27;;;;;;;1.80;0.97;;;3.10;1.00;;;;;;4994948;28;20517;-74
2022/01/27 12:35:59;;;;;;;10.70;5.77;;;3.10;1.00;;;;;;4994112;28;20879;-74
2022/01/27 12:38:26;;;;;;;4.00;0.50;;;3.20;1.00;;;;;;4995661;28;20536;-74
2022/01/27 12:40:59;;;;;;;0.87;0.87;;;3.10;1.00;;;;;;5007416;28;20782;-74
2022/01/27 12:43:27;;;;;;;0.50;0.10;;;3.10;1.00;;;;;;4996445;28;20445;-74
2022/01/27 12:45:59;;;;;;;5.67;1.03;;;3.10;1.00;;;;;;5002190;28;20589;-75
2022/01/27 12:48:27;;;;;;;1.27;1.17;;;3.10;1.00;;;;;;5014824;28;20444;-74
2022/01/27 12:51:02;;;;;;;0.80;0.77;;;3.10;1.00;;;;;;5013989;28;20543;-74
2022/01/27 12:53:31;;;;;;;1.07;0.97;;;3.20;1.00;;;;;;5012317;28;20948;-74
2022/01/27 12:56:08;;;;;;;0.87;0.77;;;3.10;1.00;;;;;;5013020;28;20484;-74
2022/01/27 12:58:38;;;;;;;1.30;1.20;;;3.20;1.00;;;;;;5016163;28;20461;-74
2022/01/27 13:01:07;;;;;;;0.63;0.57;;;3.30;1.00;;;;;;5002614;28;20457;-75
2022/01/27 13:03:35;;;;;;;5.50;2.43;;;3.30;1.00;;;;;;5000465;28;20465;-74
2022/01/27 13:06:05;;;;;;;0.50;0.10;;;3.30;1.00;;;;;;4996028;28;20526;-74
2022/01/27 13:08:39;;;;;;;1.80;0.53;;;3.30;1.00;;;;;;4994360;28;20472;-74
2022/01/27 13:11:11;;;;;;;2.90;0.80;;;3.30;1.00;;;;;;4996424;28;20442;-73
2022/01/27 13:13:41;;;;;;;0.60;0.50;;;2.50;1.00;;;;;;4994681;28;20529;-74
2022/01/27 13:16:15;;;;;;;0.50;0.10;;;3.30;1.00;;;;;;4995669;28;20458;-73
2022/01/27 13:19:01;;;;;;;0.87;0.87;;;3.30;1.00;;;;;;5005129;28;20452;-74
2022/01/27 13:21:32;;;;;;;0.70;0.37;;;3.30;1.00;;;;;;4995140;28;20445;-74
2022/01/27 13:24:05;;;;;;;1.63;0.80;;;3.30;1.00;;;;;;4995432;28;20492;-75
2022/01/27 13:26:35;;;;;;;2.50;1.37;;;3.20;1.00;;;;;;4995739;28;20481;-74
2022/01/27 13:29:04;;;;;;;1.53;1.40;;;3.20;1.00;;;;;;4999683;28;20485;-74
2022/01/27 13:31:33;;;;;;;1.50;1.43;;;3.20;1.00;;;;;;4996726;28;20536;-75
2022/01/27 13:34:05;;;;;;;2.10;1.80;;;3.30;1.00;;;;;;4994186;28;20527;-75
2022/01/27 13:36:35;;;;;;;0.73;0.60;;;3.30;1.00;;;;;;5014366;28;20548;-74
2022/01/27 13:39:13;;;;;;;3.40;3.20;;;3.30;1.00;;;;;;5014487;28;20445;-74
2022/01/27 13:41:43;;;;;;;12.03;6.17;;;3.30;1.00;;;;;;5014031;28;20520;-75
2022/01/27 13:44:13;;;;;;;1.30;0.70;;;3.20;1.00;;;;;;5013608;28;20500;-74
2022/01/27 13:46:44;;;;;;;0.50;0.20;;;3.20;1.00;;;;;;5013673;28;20566;-74
2022/01/27 13:49:16;;;;;;;6.13;0.87;;;3.20;1.00;;;;;;5014134;28;20765;-73
2022/01/27 13:51:52;;;;;;;1.57;1.47;;;3.30;1.00;;;;;;5013029;28;20458;-74
2022/01/27 13:54:22;;;;;;;5.70;1.70;;;3.30;1.00;;;;;;5013521;28;20720;-74
2022/01/27 13:56:53;;;;;;;0.80;0.57;;;3.30;1.00;;;;;;5013957;28;20477;-74
2022/01/27 13:59:28;;;;;;;0.70;0.30;;;;;;;;;;5013341;28;20446;-73